sensor_id;sensor_type;location;lat;lon;timestamp;P1;durP1;ratioP1;P2;durP2;ratioP2
55827;SDS011;41758;51.992;5.890;2023-05-02T00:01:54;21.90;;;16.55;;
55827;SDS011;41758;51.992;5.890;2023-05-02T00:04:19;21.65;;;17.05;;
55827;SDS011;41758;51.992;5.890;2023-05-02T00:06:45;23.52;;;18.10;;
55827;SDS011;41758;51.992;5.890;2023-05-02T00:09:11;22.40;;;17.38;;
55827;SDS011;41758;51.992;5.890;2023-05-02T00:11:37;24.73;;;17.92;;
55827;SDS011;41758;51.992;5.890;2023-05-02T00:14:03;21.45;;;16.05;;
55827;SDS011;41758;51.992;5.890;2023-05-02T00:16:28;20.67;;;16.20;;
55827;SDS011;41758;51.992;5.890;2023-05-02T00:18:54;20.50;;;15.55;;
55827;SDS011;41758;51.992;5.890;2023-05-02T00:21:20;18.10;;;14.55;;
55827;SDS011;41758;51.992;5.890;2023-05-02T00:23:46;19.15;;;14.38;;
55827;SDS011;41758;51.992;5.890;2023-05-02T00:26:11;20.38;;;14.45;;
55827;SDS011;41758;51.992;5.890;2023-05-02T00:28:40;17.20;;;13.95;;
55827;SDS011;41758;51.992;5.890;2023-05-02T00:31:06;16.17;;;11.55;;
55827;SDS011;41758;51.992;5.890;2023-05-02T00:33:32;15.93;;;12.15;;
55827;SDS011;41758;51.992;5.890;2023-05-02T00:35:57;14.85;;;11.68;;
55827;SDS011;41758;51.992;5.890;2023-05-02T00:38:23;16.20;;;12.15;;
55827;SDS011;41758;51.992;5.890;2023-05-02T00:40:49;14.90;;;11.68;;
55827;SDS011;41758;51.992;5.890;2023-05-02T00:43:18;16.35;;;11.80;;
55827;SDS011;41758;51.992;5.890;2023-05-02T00:45:44;15.13;;;11.90;;
55827;SDS011;41758;51.992;5.890;2023-05-02T00:48:10;15.85;;;12.27;;
55827;SDS011;41758;51.992;5.890;2023-05-02T00:50:37;14.90;;;11.93;;
55827;SDS011;41758;51.992;5.890;2023-05-02T00:53:08;18.40;;;11.70;;
55827;SDS011;41758;51.992;5.890;2023-05-02T00:55:34;17.23;;;13.43;;
55827;SDS011;41758;51.992;5.890;2023-05-02T00:58:01;18.63;;;13.68;;
55827;SDS011;41758;51.992;5.890;2023-05-02T01:00:30;19.27;;;14.18;;
55827;SDS011;41758;51.992;5.890;2023-05-02T01:06:10;16.50;;;12.55;;
55827;SDS011;41758;51.992;5.890;2023-05-02T01:08:59;14.93;;;11.30;;
55827;SDS011;41758;51.992;5.890;2023-05-02T01:14:17;17.05;;;12.50;;
55827;SDS011;41758;51.992;5.890;2023-05-02T01:16:45;18.05;;;12.90;;
55827;SDS011;41758;51.992;5.890;2023-05-02T01:19:18;14.80;;;12.10;;
55827;SDS011;41758;51.992;5.890;2023-05-02T01:21:50;16.52;;;12.27;;
55827;SDS011;41758;51.992;5.890;2023-05-02T01:24:18;13.50;;;10.88;;
55827;SDS011;41758;51.992;5.890;2023-05-02T01:29:31;16.75;;;12.35;;
55827;SDS011;41758;51.992;5.890;2023-05-02T01:31:58;17.95;;;13.10;;
55827;SDS011;41758;51.992;5.890;2023-05-02T01:34:26;18.10;;;12.45;;
55827;SDS011;41758;51.992;5.890;2023-05-02T01:36:53;18.05;;;13.88;;
55827;SDS011;41758;51.992;5.890;2023-05-02T01:39:21;17.15;;;12.52;;
55827;SDS011;41758;51.992;5.890;2023-05-02T01:41:49;17.50;;;12.82;;
55827;SDS011;41758;51.992;5.890;2023-05-02T01:44:18;19.02;;;14.10;;
55827;SDS011;41758;51.992;5.890;2023-05-02T01:46:46;17.83;;;14.15;;
55827;SDS011;41758;51.992;5.890;2023-05-02T01:49:13;17.45;;;13.50;;
55827;SDS011;41758;51.992;5.890;2023-05-02T01:51:43;17.70;;;13.82;;
55827;SDS011;41758;51.992;5.890;2023-05-02T01:54:11;16.45;;;12.98;;
55827;SDS011;41758;51.992;5.890;2023-05-02T01:56:39;17.30;;;13.18;;
55827;SDS011;41758;51.992;5.890;2023-05-02T01:59:07;16.75;;;13.57;;
55827;SDS011;41758;51.992;5.890;2023-05-02T02:01:35;16.50;;;13.38;;
55827;SDS011;41758;51.992;5.890;2023-05-02T02:04:03;16.85;;;12.77;;
55827;SDS011;41758;51.992;5.890;2023-05-02T02:06:31;14.85;;;11.77;;
55827;SDS011;41758;51.992;5.890;2023-05-02T02:08:57;17.05;;;11.32;;
55827;SDS011;41758;51.992;5.890;2023-05-02T02:11:24;15.07;;;11.07;;
55827;SDS011;41758;51.992;5.890;2023-05-02T02:14:18;14.18;;;10.50;;
55827;SDS011;41758;51.992;5.890;2023-05-02T02:16:45;12.80;;;10.38;;
55827;SDS011;41758;51.992;5.890;2023-05-02T02:19:13;12.27;;;9.40;;
55827;SDS011;41758;51.992;5.890;2023-05-02T02:21:41;12.38;;;8.07;;
55827;SDS011;41758;51.992;5.890;2023-05-02T02:24:08;12.52;;;7.63;;
55827;SDS011;41758;51.992;5.890;2023-05-02T02:26:35;9.73;;;7.05;;
55827;SDS011;41758;51.992;5.890;2023-05-02T02:29:02;13.90;;;6.30;;
55827;SDS011;41758;51.992;5.890;2023-05-02T02:31:34;9.32;;;5.53;;
55827;SDS011;41758;51.992;5.890;2023-05-02T02:34:02;12.38;;;5.22;;
55827;SDS011;41758;51.992;5.890;2023-05-02T02:40:16;10.55;;;4.43;;
55827;SDS011;41758;51.992;5.890;2023-05-02T02:42:12;11.95;;;3.70;;
55827;SDS011;41758;51.992;5.890;2023-05-02T02:48:19;9.32;;;4.00;;
55827;SDS011;41758;51.992;5.890;2023-05-02T02:53:33;12.55;;;4.00;;
55827;SDS011;41758;51.992;5.890;2023-05-02T02:56:15;8.45;;;3.25;;
55827;SDS011;41758;51.992;5.890;2023-05-02T02:58:56;9.35;;;3.75;;
55827;SDS011;41758;51.992;5.890;2023-05-02T03:01:29;9.98;;;3.65;;
55827;SDS011;41758;51.992;5.890;2023-05-02T03:03:57;8.93;;;3.80;;
55827;SDS011;41758;51.992;5.890;2023-05-02T03:06:23;8.20;;;3.55;;
55827;SDS011;41758;51.992;5.890;2023-05-02T03:08:52;9.07;;;3.45;;
55827;SDS011;41758;51.992;5.890;2023-05-02T03:11:23;9.20;;;3.33;;
55827;SDS011;41758;51.992;5.890;2023-05-02T03:13:49;7.63;;;3.65;;
55827;SDS011;41758;51.992;5.890;2023-05-02T03:16:32;10.18;;;3.60;;
55827;SDS011;41758;51.992;5.890;2023-05-02T03:19:03;8.82;;;3.50;;
55827;SDS011;41758;51.992;5.890;2023-05-02T03:21:30;8.85;;;3.33;;
55827;SDS011;41758;51.992;5.890;2023-05-02T03:24:01;7.95;;;3.30;;
55827;SDS011;41758;51.992;5.890;2023-05-02T03:26:28;8.90;;;3.72;;
55827;SDS011;41758;51.992;5.890;2023-05-02T03:28:54;8.70;;;3.67;;
55827;SDS011;41758;51.992;5.890;2023-05-02T03:31:26;7.93;;;3.10;;
55827;SDS011;41758;51.992;5.890;2023-05-02T03:33:52;6.95;;;3.15;;
55827;SDS011;41758;51.992;5.890;2023-05-02T03:36:18;6.07;;;2.85;;
55827;SDS011;41758;51.992;5.890;2023-05-02T03:38:44;8.57;;;3.22;;
55827;SDS011;41758;51.992;5.890;2023-05-02T03:41:11;9.50;;;3.28;;
55827;SDS011;41758;51.992;5.890;2023-05-02T03:43:39;8.70;;;3.08;;
55827;SDS011;41758;51.992;5.890;2023-05-02T03:46:05;7.82;;;2.85;;
55827;SDS011;41758;51.992;5.890;2023-05-02T03:48:34;6.82;;;3.03;;
55827;SDS011;41758;51.992;5.890;2023-05-02T03:51:01;6.93;;;2.80;;
55827;SDS011;41758;51.992;5.890;2023-05-02T03:53:31;9.05;;;2.83;;
55827;SDS011;41758;51.992;5.890;2023-05-02T03:55:57;7.60;;;2.92;;
55827;SDS011;41758;51.992;5.890;2023-05-02T03:58:34;8.85;;;3.13;;
55827;SDS011;41758;51.992;5.890;2023-05-02T04:01:00;7.10;;;2.72;;
55827;SDS011;41758;51.992;5.890;2023-05-02T04:03:26;9.75;;;3.08;;
55827;SDS011;41758;51.992;5.890;2023-05-02T04:05:58;6.65;;;2.50;;
55827;SDS011;41758;51.992;5.890;2023-05-02T04:08:24;8.63;;;3.17;;
55827;SDS011;41758;51.992;5.890;2023-05-02T04:10:50;5.65;;;2.60;;
55827;SDS011;41758;51.992;5.890;2023-05-02T04:13:17;10.60;;;3.10;;
55827;SDS011;41758;51.992;5.890;2023-05-02T04:15:45;8.48;;;2.92;;
55827;SDS011;41758;51.992;5.890;2023-05-02T04:18:13;6.57;;;2.80;;
55827;SDS011;41758;51.992;5.890;2023-05-02T04:20:41;7.95;;;2.58;;
55827;SDS011;41758;51.992;5.890;2023-05-02T04:23:11;7.18;;;2.95;;
55827;SDS011;41758;51.992;5.890;2023-05-02T04:25:39;6.65;;;2.75;;
55827;SDS011;41758;51.992;5.890;2023-05-02T04:28:05;6.90;;;2.63;;
55827;SDS011;41758;51.992;5.890;2023-05-02T04:30:31;7.82;;;3.20;;
55827;SDS011;41758;51.992;5.890;2023-05-02T04:33:03;7.45;;;2.58;;
55827;SDS011;41758;51.992;5.890;2023-05-02T04:35:33;7.20;;;2.90;;
55827;SDS011;41758;51.992;5.890;2023-05-02T04:38:01;6.10;;;2.35;;
55827;SDS011;41758;51.992;5.890;2023-05-02T04:40:27;6.85;;;2.60;;
55827;SDS011;41758;51.992;5.890;2023-05-02T04:42:59;7.93;;;2.53;;
55827;SDS011;41758;51.992;5.890;2023-05-02T04:45:35;7.07;;;2.40;;
55827;SDS011;41758;51.992;5.890;2023-05-02T04:48:04;5.88;;;2.70;;
55827;SDS011;41758;51.992;5.890;2023-05-02T04:50:30;6.25;;;2.38;;
55827;SDS011;41758;51.992;5.890;2023-05-02T04:52:56;5.85;;;2.40;;
55827;SDS011;41758;51.992;5.890;2023-05-02T04:55:23;7.78;;;2.30;;
55827;SDS011;41758;51.992;5.890;2023-05-02T04:57:49;6.57;;;2.47;;
55827;SDS011;41758;51.992;5.890;2023-05-02T05:00:16;6.50;;;2.60;;
55827;SDS011;41758;51.992;5.890;2023-05-02T05:02:42;6.65;;;2.40;;
55827;SDS011;41758;51.992;5.890;2023-05-02T05:05:10;5.82;;;2.35;;
55827;SDS011;41758;51.992;5.890;2023-05-02T05:07:36;6.55;;;2.15;;
55827;SDS011;41758;51.992;5.890;2023-05-02T05:10:01;7.03;;;2.45;;
55827;SDS011;41758;51.992;5.890;2023-05-02T05:12:34;7.18;;;2.70;;
55827;SDS011;41758;51.992;5.890;2023-05-02T05:14:59;7.15;;;2.50;;
55827;SDS011;41758;51.992;5.890;2023-05-02T05:17:26;7.10;;;2.50;;
55827;SDS011;41758;51.992;5.890;2023-05-02T05:19:52;6.60;;;2.75;;
55827;SDS011;41758;51.992;5.890;2023-05-02T05:22:18;8.05;;;2.55;;
55827;SDS011;41758;51.992;5.890;2023-05-02T05:24:52;10.15;;;2.92;;
55827;SDS011;41758;51.992;5.890;2023-05-02T05:27:19;7.38;;;2.67;;
55827;SDS011;41758;51.992;5.890;2023-05-02T05:29:45;8.35;;;2.60;;
55827;SDS011;41758;51.992;5.890;2023-05-02T05:32:11;7.32;;;3.00;;
55827;SDS011;41758;51.992;5.890;2023-05-02T05:34:37;5.90;;;2.47;;
55827;SDS011;41758;51.992;5.890;2023-05-02T05:37:04;8.77;;;2.67;;
55827;SDS011;41758;51.992;5.890;2023-05-02T05:39:30;9.88;;;3.00;;
55827;SDS011;41758;51.992;5.890;2023-05-02T05:41:58;8.30;;;2.90;;
55827;SDS011;41758;51.992;5.890;2023-05-02T05:44:25;6.57;;;2.47;;
55827;SDS011;41758;51.992;5.890;2023-05-02T05:46:51;6.18;;;2.72;;
55827;SDS011;41758;51.992;5.890;2023-05-02T05:49:19;7.05;;;2.60;;
55827;SDS011;41758;51.992;5.890;2023-05-02T05:51:46;4.85;;;2.33;;
55827;SDS011;41758;51.992;5.890;2023-05-02T05:54:13;5.57;;;2.40;;
55827;SDS011;41758;51.992;5.890;2023-05-02T05:56:39;7.90;;;2.33;;
55827;SDS011;41758;51.992;5.890;2023-05-02T05:59:09;6.80;;;2.47;;
55827;SDS011;41758;51.992;5.890;2023-05-02T06:01:35;4.97;;;2.38;;
55827;SDS011;41758;51.992;5.890;2023-05-02T06:04:03;6.40;;;2.50;;
55827;SDS011;41758;51.992;5.890;2023-05-02T06:06:29;6.47;;;2.58;;
55827;SDS011;41758;51.992;5.890;2023-05-02T06:08:58;5.30;;;2.38;;
55827;SDS011;41758;51.992;5.890;2023-05-02T06:11:24;7.80;;;2.90;;
55827;SDS011;41758;51.992;5.890;2023-05-02T06:13:50;6.20;;;2.50;;
55827;SDS011;41758;51.992;5.890;2023-05-02T06:16:17;7.20;;;3.13;;
55827;SDS011;41758;51.992;5.890;2023-05-02T06:18:44;5.30;;;2.42;;
55827;SDS011;41758;51.992;5.890;2023-05-02T06:21:10;6.65;;;2.78;;
55827;SDS011;41758;51.992;5.890;2023-05-02T06:23:35;7.40;;;3.20;;
55827;SDS011;41758;51.992;5.890;2023-05-02T06:26:02;11.15;;;3.15;;
55827;SDS011;41758;51.992;5.890;2023-05-02T06:28:28;10.30;;;3.58;;
55827;SDS011;41758;51.992;5.890;2023-05-02T06:30:55;7.70;;;2.90;;
55827;SDS011;41758;51.992;5.890;2023-05-02T06:33:25;8.52;;;3.20;;
55827;SDS011;41758;51.992;5.890;2023-05-02T06:35:51;8.95;;;3.63;;
55827;SDS011;41758;51.992;5.890;2023-05-02T06:38:17;10.48;;;3.50;;
55827;SDS011;41758;51.992;5.890;2023-05-02T06:40:43;11.25;;;3.53;;
55827;SDS011;41758;51.992;5.890;2023-05-02T06:43:09;7.30;;;3.15;;
55827;SDS011;41758;51.992;5.890;2023-05-02T06:45:35;6.22;;;3.00;;
55827;SDS011;41758;51.992;5.890;2023-05-02T06:48:01;7.97;;;2.90;;
55827;SDS011;41758;51.992;5.890;2023-05-02T06:50:28;7.18;;;2.95;;
55827;SDS011;41758;51.992;5.890;2023-05-02T06:52:53;7.50;;;2.90;;
55827;SDS011;41758;51.992;5.890;2023-05-02T06:55:20;7.82;;;3.05;;
55827;SDS011;41758;51.992;5.890;2023-05-02T06:57:47;10.00;;;2.97;;
55827;SDS011;41758;51.992;5.890;2023-05-02T07:00:13;7.20;;;2.88;;
55827;SDS011;41758;51.992;5.890;2023-05-02T07:02:40;5.05;;;2.63;;
55827;SDS011;41758;51.992;5.890;2023-05-02T07:05:06;7.47;;;2.83;;
55827;SDS011;41758;51.992;5.890;2023-05-02T07:07:32;7.38;;;2.70;;
55827;SDS011;41758;51.992;5.890;2023-05-02T07:09:58;6.90;;;2.60;;
55827;SDS011;41758;51.992;5.890;2023-05-02T07:12:24;6.00;;;2.60;;
55827;SDS011;41758;51.992;5.890;2023-05-02T07:14:50;7.13;;;2.78;;
55827;SDS011;41758;51.992;5.890;2023-05-02T07:17:16;6.93;;;2.80;;
55827;SDS011;41758;51.992;5.890;2023-05-02T07:19:42;8.90;;;2.60;;
55827;SDS011;41758;51.992;5.890;2023-05-02T07:22:08;5.55;;;2.30;;
55827;SDS011;41758;51.992;5.890;2023-05-02T07:24:33;5.53;;;2.50;;
55827;SDS011;41758;51.992;5.890;2023-05-02T07:26:59;6.28;;;2.45;;
55827;SDS011;41758;51.992;5.890;2023-05-02T07:29:25;5.30;;;2.33;;
55827;SDS011;41758;51.992;5.890;2023-05-02T07:31:51;5.43;;;2.00;;
55827;SDS011;41758;51.992;5.890;2023-05-02T07:34:16;4.72;;;2.00;;
55827;SDS011;41758;51.992;5.890;2023-05-02T07:36:42;7.55;;;2.65;;
55827;SDS011;41758;51.992;5.890;2023-05-02T07:39:08;7.55;;;2.90;;
55827;SDS011;41758;51.992;5.890;2023-05-02T07:41:34;6.22;;;2.70;;
55827;SDS011;41758;51.992;5.890;2023-05-02T07:43:59;8.63;;;2.38;;
55827;SDS011;41758;51.992;5.890;2023-05-02T07:46:25;7.07;;;2.60;;
55827;SDS011;41758;51.992;5.890;2023-05-02T07:48:51;4.40;;;2.00;;
55827;SDS011;41758;51.992;5.890;2023-05-02T07:51:18;5.18;;;2.13;;
55827;SDS011;41758;51.992;5.890;2023-05-02T07:53:45;4.78;;;2.08;;
55827;SDS011;41758;51.992;5.890;2023-05-02T07:56:14;6.43;;;2.03;;
55827;SDS011;41758;51.992;5.890;2023-05-02T07:58:40;5.00;;;2.17;;
55827;SDS011;41758;51.992;5.890;2023-05-02T08:01:05;4.60;;;1.90;;
55827;SDS011;41758;51.992;5.890;2023-05-02T08:03:32;6.28;;;2.40;;
55827;SDS011;41758;51.992;5.890;2023-05-02T08:05:57;5.28;;;1.95;;
55827;SDS011;41758;51.992;5.890;2023-05-02T08:08:23;6.50;;;2.40;;
55827;SDS011;41758;51.992;5.890;2023-05-02T08:10:49;7.63;;;2.45;;
55827;SDS011;41758;51.992;5.890;2023-05-02T08:13:15;8.68;;;2.80;;
55827;SDS011;41758;51.992;5.890;2023-05-02T08:15:41;5.68;;;2.20;;
55827;SDS011;41758;51.992;5.890;2023-05-02T08:18:07;4.53;;;2.10;;
55827;SDS011;41758;51.992;5.890;2023-05-02T08:20:33;5.13;;;2.13;;
55827;SDS011;41758;51.992;5.890;2023-05-02T08:22:58;6.45;;;2.78;;
55827;SDS011;41758;51.992;5.890;2023-05-02T08:25:24;5.32;;;2.30;;
55827;SDS011;41758;51.992;5.890;2023-05-02T08:27:50;5.80;;;2.30;;
55827;SDS011;41758;51.992;5.890;2023-05-02T08:30:15;4.20;;;1.90;;
55827;SDS011;41758;51.992;5.890;2023-05-02T08:32:41;6.30;;;2.38;;
55827;SDS011;41758;51.992;5.890;2023-05-02T08:35:07;6.35;;;2.42;;
55827;SDS011;41758;51.992;5.890;2023-05-02T08:37:33;5.45;;;2.25;;
55827;SDS011;41758;51.992;5.890;2023-05-02T08:39:59;5.28;;;2.03;;
55827;SDS011;41758;51.992;5.890;2023-05-02T08:42:24;3.42;;;1.80;;
55827;SDS011;41758;51.992;5.890;2023-05-02T08:44:51;3.97;;;1.75;;
55827;SDS011;41758;51.992;5.890;2023-05-02T08:47:17;4.93;;;2.10;;
55827;SDS011;41758;51.992;5.890;2023-05-02T08:49:43;6.10;;;2.10;;
55827;SDS011;41758;51.992;5.890;2023-05-02T08:52:11;5.82;;;2.33;;
55827;SDS011;41758;51.992;5.890;2023-05-02T08:54:37;4.28;;;1.90;;
55827;SDS011;41758;51.992;5.890;2023-05-02T08:57:03;4.32;;;2.10;;
55827;SDS011;41758;51.992;5.890;2023-05-02T08:59:30;4.85;;;2.03;;
55827;SDS011;41758;51.992;5.890;2023-05-02T09:01:58;4.18;;;1.73;;
55827;SDS011;41758;51.992;5.890;2023-05-02T09:04:29;6.10;;;1.70;;
55827;SDS011;41758;51.992;5.890;2023-05-02T09:06:58;5.32;;;1.88;;
55827;SDS011;41758;51.992;5.890;2023-05-02T09:09:25;4.15;;;1.63;;
55827;SDS011;41758;51.992;5.890;2023-05-02T09:11:51;4.30;;;1.73;;
55827;SDS011;41758;51.992;5.890;2023-05-02T09:14:17;4.50;;;1.73;;
55827;SDS011;41758;51.992;5.890;2023-05-02T09:16:43;4.03;;;2.03;;
55827;SDS011;41758;51.992;5.890;2023-05-02T09:19:09;5.80;;;2.00;;
55827;SDS011;41758;51.992;5.890;2023-05-02T09:21:38;7.50;;;2.05;;
55827;SDS011;41758;51.992;5.890;2023-05-02T09:24:21;4.88;;;2.08;;
55827;SDS011;41758;51.992;5.890;2023-05-02T09:29:27;4.22;;;2.00;;
55827;SDS011;41758;51.992;5.890;2023-05-02T09:32:03;4.13;;;2.20;;
55827;SDS011;41758;51.992;5.890;2023-05-02T09:34:30;5.43;;;2.08;;
55827;SDS011;41758;51.992;5.890;2023-05-02T09:36:56;7.07;;;2.40;;
55827;SDS011;41758;51.992;5.890;2023-05-02T09:39:25;5.80;;;2.15;;
55827;SDS011;41758;51.992;5.890;2023-05-02T09:41:53;4.10;;;1.77;;
55827;SDS011;41758;51.992;5.890;2023-05-02T09:44:19;4.88;;;1.90;;
55827;SDS011;41758;51.992;5.890;2023-05-02T09:46:53;4.82;;;2.03;;
55827;SDS011;41758;51.992;5.890;2023-05-02T09:52:13;4.63;;;2.03;;
55827;SDS011;41758;51.992;5.890;2023-05-02T09:54:40;6.35;;;2.10;;
55827;SDS011;41758;51.992;5.890;2023-05-02T09:57:07;4.95;;;2.05;;
55827;SDS011;41758;51.992;5.890;2023-05-02T09:59:34;4.18;;;1.90;;
55827;SDS011;41758;51.992;5.890;2023-05-02T10:02:04;3.53;;;1.70;;
55827;SDS011;41758;51.992;5.890;2023-05-02T10:04:32;4.93;;;1.90;;
55827;SDS011;41758;51.992;5.890;2023-05-02T10:06:58;5.50;;;1.95;;
55827;SDS011;41758;51.992;5.890;2023-05-02T10:09:25;4.07;;;1.70;;
55827;SDS011;41758;51.992;5.890;2023-05-02T10:11:53;3.95;;;1.90;;
55827;SDS011;41758;51.992;5.890;2023-05-02T10:14:20;4.00;;;1.70;;
55827;SDS011;41758;51.992;5.890;2023-05-02T10:19:40;3.90;;;1.90;;
55827;SDS011;41758;51.992;5.890;2023-05-02T10:22:17;3.08;;;1.60;;
55827;SDS011;41758;51.992;5.890;2023-05-02T10:24:43;4.57;;;1.83;;
55827;SDS011;41758;51.992;5.890;2023-05-02T10:27:12;5.38;;;1.90;;
55827;SDS011;41758;51.992;5.890;2023-05-02T10:29:39;4.63;;;1.95;;
55827;SDS011;41758;51.992;5.890;2023-05-02T10:32:06;5.38;;;1.73;;
55827;SDS011;41758;51.992;5.890;2023-05-02T10:34:33;5.40;;;1.80;;
55827;SDS011;41758;51.992;5.890;2023-05-02T10:36:59;5.93;;;2.00;;
55827;SDS011;41758;51.992;5.890;2023-05-02T10:39:26;5.72;;;2.45;;
55827;SDS011;41758;51.992;5.890;2023-05-02T10:41:53;4.20;;;2.10;;
55827;SDS011;41758;51.992;5.890;2023-05-02T10:44:33;6.32;;;2.40;;
55827;SDS011;41758;51.992;5.890;2023-05-02T10:47:00;4.55;;;2.20;;
55827;SDS011;41758;51.992;5.890;2023-05-02T10:49:26;5.63;;;2.30;;
55827;SDS011;41758;51.992;5.890;2023-05-02T10:51:53;4.72;;;2.03;;
55827;SDS011;41758;51.992;5.890;2023-05-02T10:54:23;5.32;;;2.40;;
55827;SDS011;41758;51.992;5.890;2023-05-02T11:07:28;7.20;;;2.22;;
55827;SDS011;41758;51.992;5.890;2023-05-02T11:10:41;5.95;;;2.30;;
55827;SDS011;41758;51.992;5.890;2023-05-02T11:12:45;5.28;;;2.10;;
55827;SDS011;41758;51.992;5.890;2023-05-02T11:15:14;5.75;;;2.30;;
55827;SDS011;41758;51.992;5.890;2023-05-02T11:18:05;4.22;;;1.95;;
55827;SDS011;41758;51.992;5.890;2023-05-02T11:20:32;5.40;;;2.00;;
55827;SDS011;41758;51.992;5.890;2023-05-02T11:23:18;4.43;;;2.10;;
55827;SDS011;41758;51.992;5.890;2023-05-02T11:25:49;4.70;;;1.92;;
55827;SDS011;41758;51.992;5.890;2023-05-02T11:28:38;3.63;;;1.70;;
55827;SDS011;41758;51.992;5.890;2023-05-02T11:31:06;3.55;;;1.60;;
55827;SDS011;41758;51.992;5.890;2023-05-02T11:33:34;3.67;;;1.67;;
55827;SDS011;41758;51.992;5.890;2023-05-02T11:36:00;4.85;;;2.00;;
55827;SDS011;41758;51.992;5.890;2023-05-02T11:38:26;4.43;;;2.00;;
55827;SDS011;41758;51.992;5.890;2023-05-02T11:40:59;4.32;;;2.00;;
55827;SDS011;41758;51.992;5.890;2023-05-02T11:43:27;6.18;;;2.50;;
55827;SDS011;41758;51.992;5.890;2023-05-02T11:45:54;5.97;;;2.70;;
55827;SDS011;41758;51.992;5.890;2023-05-02T11:48:21;4.45;;;2.03;;
55827;SDS011;41758;51.992;5.890;2023-05-02T11:50:51;5.57;;;2.10;;
55827;SDS011;41758;51.992;5.890;2023-05-02T11:53:22;5.13;;;2.38;;
55827;SDS011;41758;51.992;5.890;2023-05-02T11:55:56;4.72;;;2.30;;
55827;SDS011;41758;51.992;5.890;2023-05-02T11:58:24;5.05;;;2.20;;
55827;SDS011;41758;51.992;5.890;2023-05-02T12:00:53;3.97;;;2.00;;
55827;SDS011;41758;51.992;5.890;2023-05-02T12:05:48;7.50;;;2.10;;
55827;SDS011;41758;51.992;5.890;2023-05-02T12:08:33;6.32;;;2.38;;
55827;SDS011;41758;51.992;5.890;2023-05-02T12:10:59;4.85;;;2.10;;
55827;SDS011;41758;51.992;5.890;2023-05-02T12:13:25;4.75;;;2.03;;
55827;SDS011;41758;51.992;5.890;2023-05-02T12:15:51;4.57;;;1.83;;
55827;SDS011;41758;51.992;5.890;2023-05-02T12:18:19;6.38;;;2.42;;
55827;SDS011;41758;51.992;5.890;2023-05-02T12:20:48;5.00;;;2.35;;
55827;SDS011;41758;51.992;5.890;2023-05-02T12:23:15;4.95;;;2.00;;
55827;SDS011;41758;51.992;5.890;2023-05-02T12:25:42;5.43;;;2.40;;
55827;SDS011;41758;51.992;5.890;2023-05-02T12:28:08;5.55;;;2.30;;
55827;SDS011;41758;51.992;5.890;2023-05-02T12:30:35;5.53;;;2.53;;
55827;SDS011;41758;51.992;5.890;2023-05-02T12:33:06;5.63;;;2.50;;
55827;SDS011;41758;51.992;5.890;2023-05-02T12:35:32;5.68;;;2.47;;
55827;SDS011;41758;51.992;5.890;2023-05-02T12:38:09;7.78;;;2.70;;
55827;SDS011;41758;51.992;5.890;2023-05-02T12:40:35;6.65;;;2.70;;
55827;SDS011;41758;51.992;5.890;2023-05-02T12:43:02;5.57;;;2.20;;
55827;SDS011;41758;51.992;5.890;2023-05-02T12:45:32;6.25;;;2.58;;
55827;SDS011;41758;51.992;5.890;2023-05-02T12:48:01;8.32;;;2.60;;
55827;SDS011;41758;51.992;5.890;2023-05-02T12:50:41;5.68;;;2.50;;
55827;SDS011;41758;51.992;5.890;2023-05-02T12:53:07;5.57;;;2.60;;
55827;SDS011;41758;51.992;5.890;2023-05-02T12:55:32;4.78;;;2.28;;
55827;SDS011;41758;51.992;5.890;2023-05-02T12:57:59;7.07;;;2.90;;
55827;SDS011;41758;51.992;5.890;2023-05-02T13:00:32;6.53;;;2.80;;
55827;SDS011;41758;51.992;5.890;2023-05-02T13:03:03;6.07;;;2.60;;
55827;SDS011;41758;51.992;5.890;2023-05-02T13:05:29;5.10;;;2.78;;
55827;SDS011;41758;51.992;5.890;2023-05-02T13:07:55;5.30;;;2.28;;
55827;SDS011;41758;51.992;5.890;2023-05-02T13:10:22;6.32;;;2.35;;
55827;SDS011;41758;51.992;5.890;2023-05-02T13:12:50;5.72;;;2.47;;
55827;SDS011;41758;51.992;5.890;2023-05-02T13:15:16;4.50;;;2.15;;
55827;SDS011;41758;51.992;5.890;2023-05-02T13:17:43;6.10;;;2.55;;
55827;SDS011;41758;51.992;5.890;2023-05-02T13:20:08;6.32;;;2.55;;
55827;SDS011;41758;51.992;5.890;2023-05-02T13:22:35;6.97;;;2.75;;
55827;SDS011;41758;51.992;5.890;2023-05-02T13:25:02;5.72;;;2.55;;
55827;SDS011;41758;51.992;5.890;2023-05-02T13:27:28;4.30;;;2.30;;
55827;SDS011;41758;51.992;5.890;2023-05-02T13:29:54;4.93;;;2.10;;
55827;SDS011;41758;51.992;5.890;2023-05-02T13:32:20;6.43;;;2.50;;
55827;SDS011;41758;51.992;5.890;2023-05-02T13:34:46;6.70;;;2.70;;
55827;SDS011;41758;51.992;5.890;2023-05-02T13:37:11;6.18;;;2.55;;
55827;SDS011;41758;51.992;5.890;2023-05-02T13:39:37;5.95;;;2.50;;
55827;SDS011;41758;51.992;5.890;2023-05-02T13:42:03;4.70;;;2.30;;
55827;SDS011;41758;51.992;5.890;2023-05-02T13:44:29;4.90;;;2.33;;
55827;SDS011;41758;51.992;5.890;2023-05-02T13:46:55;4.40;;;2.00;;
55827;SDS011;41758;51.992;5.890;2023-05-02T13:49:21;6.65;;;2.35;;
55827;SDS011;41758;51.992;5.890;2023-05-02T13:51:47;4.75;;;2.25;;
55827;SDS011;41758;51.992;5.890;2023-05-02T13:54:12;4.38;;;2.17;;
55827;SDS011;41758;51.992;5.890;2023-05-02T13:56:39;4.70;;;2.38;;
55827;SDS011;41758;51.992;5.890;2023-05-02T13:59:05;4.68;;;2.30;;
55827;SDS011;41758;51.992;5.890;2023-05-02T14:01:31;6.95;;;2.20;;
55827;SDS011;41758;51.992;5.890;2023-05-02T14:03:57;4.22;;;2.17;;
55827;SDS011;41758;51.992;5.890;2023-05-02T14:06:23;5.40;;;2.35;;
55827;SDS011;41758;51.992;5.890;2023-05-02T14:08:49;4.93;;;1.90;;
55827;SDS011;41758;51.992;5.890;2023-05-02T14:11:17;4.65;;;2.00;;
55827;SDS011;41758;51.992;5.890;2023-05-02T14:13:43;4.05;;;2.00;;
55827;SDS011;41758;51.992;5.890;2023-05-02T14:16:09;5.35;;;1.98;;
55827;SDS011;41758;51.992;5.890;2023-05-02T14:18:35;5.13;;;2.20;;
55827;SDS011;41758;51.992;5.890;2023-05-02T14:21:01;4.65;;;2.00;;
55827;SDS011;41758;51.992;5.890;2023-05-02T14:23:27;6.30;;;2.33;;
55827;SDS011;41758;51.992;5.890;2023-05-02T14:25:53;4.90;;;1.77;;
55827;SDS011;41758;51.992;5.890;2023-05-02T14:28:19;3.88;;;1.85;;
55827;SDS011;41758;51.992;5.890;2023-05-02T14:30:48;4.22;;;2.00;;
55827;SDS011;41758;51.992;5.890;2023-05-02T14:33:14;5.38;;;2.05;;
55827;SDS011;41758;51.992;5.890;2023-05-02T14:35:40;4.93;;;2.55;;
55827;SDS011;41758;51.992;5.890;2023-05-02T14:38:06;5.03;;;2.40;;
55827;SDS011;41758;51.992;5.890;2023-05-02T14:40:32;6.07;;;2.47;;
55827;SDS011;41758;51.992;5.890;2023-05-02T14:42:58;5.95;;;2.50;;
55827;SDS011;41758;51.992;5.890;2023-05-02T14:45:24;5.38;;;2.50;;
55827;SDS011;41758;51.992;5.890;2023-05-02T14:47:49;6.70;;;2.63;;
55827;SDS011;41758;51.992;5.890;2023-05-02T14:50:15;5.78;;;2.40;;
55827;SDS011;41758;51.992;5.890;2023-05-02T14:52:41;5.07;;;2.38;;
55827;SDS011;41758;51.992;5.890;2023-05-02T14:55:10;4.47;;;2.10;;
55827;SDS011;41758;51.992;5.890;2023-05-02T14:57:36;4.10;;;1.83;;
55827;SDS011;41758;51.992;5.890;2023-05-02T15:00:02;4.53;;;2.08;;
55827;SDS011;41758;51.992;5.890;2023-05-02T15:02:29;3.28;;;1.70;;
55827;SDS011;41758;51.992;5.890;2023-05-02T15:04:54;4.18;;;2.00;;
55827;SDS011;41758;51.992;5.890;2023-05-02T15:07:20;3.83;;;1.90;;
55827;SDS011;41758;51.992;5.890;2023-05-02T15:09:46;3.50;;;1.90;;
55827;SDS011;41758;51.992;5.890;2023-05-02T15:12:11;4.22;;;1.90;;
55827;SDS011;41758;51.992;5.890;2023-05-02T15:14:37;4.13;;;2.08;;
55827;SDS011;41758;51.992;5.890;2023-05-02T15:17:03;5.38;;;2.10;;
55827;SDS011;41758;51.992;5.890;2023-05-02T15:19:28;4.28;;;1.90;;
55827;SDS011;41758;51.992;5.890;2023-05-02T15:21:54;4.95;;;2.10;;
55827;SDS011;41758;51.992;5.890;2023-05-02T15:24:21;5.40;;;2.63;;
55827;SDS011;41758;51.992;5.890;2023-05-02T15:26:48;4.10;;;2.20;;